sensor_id;sensor_type;location;lat;lon;timestamp;pressure;altitude;pressure_sealevel;temperature;humidity
25560;BME280;13450;49.374;8.584;2023-02-21T00:02:19;101060.41;;;4.88;100.00
25560;BME280;13450;49.374;8.584;2023-02-21T00:05:03;101065.84;;;4.87;100.00
25560;BME280;13450;49.374;8.584;2023-02-21T00:07:47;101060.09;;;4.81;100.00
25560;BME280;13450;49.374;8.584;2023-02-21T00:10:31;101063.28;;;4.75;100.00
25560;BME280;13450;49.374;8.584;2023-02-21T00:13:15;101058.97;;;4.74;100.00
25560;BME280;13450;49.374;8.584;2023-02-21T00:15:58;101047.38;;;4.75;100.00
25560;BME280;13450;49.374;8.584;2023-02-21T00:18:42;101046.53;;;4.75;100.00
25560;BME280;13450;49.374;8.584;2023-02-21T00:21:28;101045.09;;;4.70;100.00
25560;BME280;13450;49.374;8.584;2023-02-21T00:24:17;101044.00;;;4.73;100.00
25560;BME280;13450;49.374;8.584;2023-02-21T00:27:01;101044.53;;;4.67;100.00
25560;BME280;13450;49.374;8.584;2023-02-21T00:29:46;101041.44;;;4.62;100.00
25560;BME280;13450;49.374;8.584;2023-02-21T00:32:30;101034.72;;;4.57;100.00
25560;BME280;13450;49.374;8.584;2023-02-21T00:35:14;101036.94;;;4.52;100.00
25560;BME280;13450;49.374;8.584;2023-02-21T00:37:58;101041.00;;;4.56;100.00
25560;BME280;13450;49.374;8.584;2023-02-21T00:40:42;101038.06;;;4.60;100.00
25560;BME280;13450;49.374;8.584;2023-02-21T00:43:30;101037.13;;;4.61;100.00
25560;BME280;13450;49.374;8.584;2023-02-21T00:46:15;101032.78;;;4.60;100.00
25560;BME280;13450;49.374;8.584;2023-02-21T00:49:00;101030.84;;;4.62;100.00
25560;BME280;13450;49.374;8.584;2023-02-21T00:51:45;101036.72;;;4.65;100.00
25560;BME280;13450;49.374;8.584;2023-02-21T00:54:29;101024.03;;;4.69;100.00
25560;BME280;13450;49.374;8.584;2023-02-21T00:57:13;101020.44;;;4.70;100.00
25560;BME280;13450;49.374;8.584;2023-02-21T00:59:57;101015.38;;;4.67;100.00
25560;BME280;13450;49.374;8.584;2023-02-21T01:02:40;101023.41;;;4.55;100.00
25560;BME280;13450;49.374;8.584;2023-02-21T01:05:24;101022.00;;;4.51;100.00
25560;BME280;13450;49.374;8.584;2023-02-21T01:08:08;101012.63;;;4.47;100.00
25560;BME280;13450;49.374;8.584;2023-02-21T01:10:52;101013.88;;;4.43;100.00
25560;BME280;13450;49.374;8.584;2023-02-21T01:13:36;101017.34;;;4.43;100.00
25560;BME280;13450;49.374;8.584;2023-02-21T01:16:20;101018.19;;;4.44;100.00
25560;BME280;13450;49.374;8.584;2023-02-21T01:19:04;101020.00;;;4.43;100.00
25560;BME280;13450;49.374;8.584;2023-02-21T01:21:50;101022.63;;;4.43;100.00
25560;BME280;13450;49.374;8.584;2023-02-21T01:24:34;101015.09;;;4.39;100.00
25560;BME280;13450;49.374;8.584;2023-02-21T01:27:18;101015.34;;;4.36;100.00
25560;BME280;13450;49.374;8.584;2023-02-21T01:30:03;101010.16;;;4.34;100.00
25560;BME280;13450;49.374;8.584;2023-02-21T01:32:47;101012.69;;;4.36;100.00
25560;BME280;13450;49.374;8.584;2023-02-21T01:35:31;101009.78;;;4.39;100.00
25560;BME280;13450;49.374;8.584;2023-02-21T01:38:17;101017.22;;;4.45;100.00
25560;BME280;13450;49.374;8.584;2023-02-21T01:41:01;101010.44;;;4.52;100.00
25560;BME280;13450;49.374;8.584;2023-02-21T01:44:02;101012.16;;;4.63;100.00
25560;BME280;13450;49.374;8.584;2023-02-21T01:46:48;101021.13;;;4.72;100.00
25560;BME280;13450;49.374;8.584;2023-02-21T01:49:36;101012.19;;;4.73;100.00
25560;BME280;13450;49.374;8.584;2023-02-21T01:52:22;101006.31;;;4.69;100.00
25560;BME280;13450;49.374;8.584;2023-02-21T01:55:08;101004.06;;;4.65;100.00
25560;BME280;13450;49.374;8.584;2023-02-21T01:57:53;101013.97;;;4.63;100.00
25560;BME280;13450;49.374;8.584;2023-02-21T02:00:39;101013.25;;;4.61;100.00
25560;BME280;13450;49.374;8.584;2023-02-21T02:03:24;101009.69;;;4.50;100.00
25560;BME280;13450;49.374;8.584;2023-02-21T02:06:12;101010.94;;;4.46;100.00
25560;BME280;13450;49.374;8.584;2023-02-21T02:08:57;100999.19;;;4.39;100.00
25560;BME280;13450;49.374;8.584;2023-02-21T02:17:54;100998.22;;;4.18;100.00
25560;BME280;13450;49.374;8.584;2023-02-21T02:23:32;100996.72;;;4.04;100.00
25560;BME280;13450;49.374;8.584;2023-02-21T02:40:35;100986.00;;;3.85;100.00
25560;BME280;13450;49.374;8.584;2023-02-21T02:45:51;100977.78;;;3.88;100.00
25560;BME280;13450;49.374;8.584;2023-02-21T02:48:31;100978.50;;;3.90;100.00
25560;BME280;13450;49.374;8.584;2023-02-21T02:50:58;100982.13;;;3.89;100.00
25560;BME280;13450;49.374;8.584;2023-02-21T02:53:27;100978.25;;;3.93;100.00
25560;BME280;13450;49.374;8.584;2023-02-21T02:55:59;100980.19;;;3.91;100.00
25560;BME280;13450;49.374;8.584;2023-02-21T02:58:29;100978.53;;;3.78;100.00
25560;BME280;13450;49.374;8.584;2023-02-21T03:04:18;100991.63;;;3.59;100.00
25560;BME280;13450;49.374;8.584;2023-02-21T03:06:57;100993.59;;;3.57;100.00
25560;BME280;13450;49.374;8.584;2023-02-21T03:15:18;100999.41;;;3.27;100.00
25560;BME280;13450;49.374;8.584;2023-02-21T03:17:51;100996.06;;;3.25;100.00
25560;BME280;13450;49.374;8.584;2023-02-21T03:20:21;100999.91;;;3.21;100.00
25560;BME280;13450;49.374;8.584;2023-02-21T03:22:48;100996.53;;;3.19;100.00
25560;BME280;13450;49.374;8.584;2023-02-21T03:25:16;100999.91;;;3.21;100.00
25560;BME280;13450;49.374;8.584;2023-02-21T03:27:43;100998.22;;;3.20;100.00
25560;BME280;13450;49.374;8.584;2023-02-21T03:30:09;100992.44;;;3.26;100.00
25560;BME280;13450;49.374;8.584;2023-02-21T03:32:43;100999.91;;;3.21;100.00
25560;BME280;13450;49.374;8.584;2023-02-21T03:35:10;100997.28;;;3.21;100.00
25560;BME280;13450;49.374;8.584;2023-02-21T03:37:49;101001.59;;;3.22;100.00
25560;BME280;13450;49.374;8.584;2023-02-21T03:40:24;101000.63;;;3.23;100.00
25560;BME280;13450;49.374;8.584;2023-02-21T03:42:51;100997.16;;;3.23;100.00
25560;BME280;13450;49.374;8.584;2023-02-21T03:45:20;100996.88;;;3.26;100.00
25560;BME280;13450;49.374;8.584;2023-02-21T03:47:45;100996.06;;;3.25;100.00
25560;BME280;13450;49.374;8.584;2023-02-21T03:50:11;101000.84;;;3.32;100.00
25560;BME280;13450;49.374;8.584;2023-02-21T03:52:37;100998.78;;;3.35;100.00
25560;BME280;13450;49.374;8.584;2023-02-21T03:55:04;100998.09;;;3.33;100.00
25560;BME280;13450;49.374;8.584;2023-02-21T03:57:29;101001.19;;;3.38;100.00
25560;BME280;13450;49.374;8.584;2023-02-21T03:59:55;101001.06;;;3.40;100.00
25560;BME280;13450;49.374;8.584;2023-02-21T04:02:20;101003.97;;;3.37;100.00
25560;BME280;13450;49.374;8.584;2023-02-21T04:04:48;101002.03;;;3.39;100.00
25560;BME280;13450;49.374;8.584;2023-02-21T04:07:15;100989.75;;;3.38;100.00
25560;BME280;13450;49.374;8.584;2023-02-21T04:09:41;100989.91;;;3.36;100.00
25560;BME280;13450;49.374;8.584;2023-02-21T04:12:07;100984.47;;;3.38;100.00
25560;BME280;13450;49.374;8.584;2023-02-21T04:14:35;100986.16;;;3.39;100.00
25560;BME280;13450;49.374;8.584;2023-02-21T04:17:01;100978.34;;;3.37;100.00
25560;BME280;13450;49.374;8.584;2023-02-21T04:19:26;100981.34;;;3.33;100.00
25560;BME280;13450;49.374;8.584;2023-02-21T04:21:51;100988.31;;;3.34;100.00
25560;BME280;13450;49.374;8.584;2023-02-21T04:24:17;100985.69;;;3.34;100.00
25560;BME280;13450;49.374;8.584;2023-02-21T04:26:45;100986.91;;;3.30;100.00
25560;BME280;13450;49.374;8.584;2023-02-21T04:29:10;100972.72;;;3.31;100.00
25560;BME280;13450;49.374;8.584;2023-02-21T04:31:38;100989.56;;;3.30;100.00
25560;BME280;13450;49.374;8.584;2023-02-21T04:34:06;100988.84;;;3.27;100.00
25560;BME280;13450;49.374;8.584;2023-02-21T04:36:32;100980.19;;;3.25;100.00
25560;BME280;13450;49.374;8.584;2023-02-21T04:38:58;100978.75;;;3.21;100.00
25560;BME280;13450;49.374;8.584;2023-02-21T04:41:23;100981.97;;;3.25;100.00
25560;BME280;13450;49.374;8.584;2023-02-21T04:43:49;100990.78;;;3.25;100.00
25560;BME280;13450;49.374;8.584;2023-02-21T04:46:16;100984.28;;;3.18;100.00
25560;BME280;13450;49.374;8.584;2023-02-21T04:48:43;100986.00;;;3.08;100.00
25560;BME280;13450;49.374;8.584;2023-02-21T04:51:10;100984.66;;;3.02;100.00
25560;BME280;13450;49.374;8.584;2023-02-21T04:53:36;100987.94;;;2.94;100.00
25560;BME280;13450;49.374;8.584;2023-02-21T04:56:01;100986.59;;;2.88;100.00
25560;BME280;13450;49.374;8.584;2023-02-21T04:58:27;100980.72;;;2.85;100.00
25560;BME280;13450;49.374;8.584;2023-02-21T05:00:52;100987.22;;;2.81;100.00
25560;BME280;13450;49.374;8.584;2023-02-21T05:03:18;100983.47;;;2.72;100.00
25560;BME280;13450;49.374;8.584;2023-02-21T05:05:44;100981.81;;;2.71;100.00
25560;BME280;13450;49.374;8.584;2023-02-21T05:08:10;100980.94;;;2.70;100.00
25560;BME280;13450;49.374;8.584;2023-02-21T05:10:35;100982.88;;;2.68;100.00
25560;BME280;13450;49.374;8.584;2023-02-21T05:13:01;100976.75;;;2.68;100.00
25560;BME280;13450;49.374;8.584;2023-02-21T05:15:26;100975.91;;;2.67;100.00
25560;BME280;13450;49.374;8.584;2023-02-21T05:17:51;100969.91;;;2.65;100.00
25560;BME280;13450;49.374;8.584;2023-02-21T05:20:17;100978.44;;;2.69;100.00
25560;BME280;13450;49.374;8.584;2023-02-21T05:22:43;100966.31;;;2.66;100.00
25560;BME280;13450;49.374;8.584;2023-02-21T05:25:20;100974.00;;;2.69;100.00
25560;BME280;13450;49.374;8.584;2023-02-21T05:27:46;100974.72;;;2.71;100.00
25560;BME280;13450;49.374;8.584;2023-02-21T05:30:17;100980.72;;;2.73;100.00
25560;BME280;13450;49.374;8.584;2023-02-21T05:32:42;100974.34;;;2.76;100.00
25560;BME280;13450;49.374;8.584;2023-02-21T05:35:14;100986.84;;;2.74;100.00
25560;BME280;13450;49.374;8.584;2023-02-21T05:37:40;100978.94;;;2.74;100.00
25560;BME280;13450;49.374;8.584;2023-02-21T05:40:06;100978.19;;;2.72;100.00
25560;BME280;13450;49.374;8.584;2023-02-21T05:42:32;100983.34;;;2.73;100.00
25560;BME280;13450;49.374;8.584;2023-02-21T05:44:58;100985.28;;;2.71;100.00
25560;BME280;13450;49.374;8.584;2023-02-21T05:47:24;100977.72;;;2.67;100.00
25560;BME280;13450;49.374;8.584;2023-02-21T05:49:49;100990.34;;;2.63;100.00
25560;BME280;13450;49.374;8.584;2023-02-21T05:52:16;100984.09;;;2.64;100.00
25560;BME280;13450;49.374;8.584;2023-02-21T05:54:46;100989.84;;;2.58;100.00
25560;BME280;13450;49.374;8.584;2023-02-21T05:57:11;100989.84;;;2.58;100.00
25560;BME280;13450;49.374;8.584;2023-02-21T05:59:36;100991.66;;;2.57;100.00
25560;BME280;13450;49.374;8.584;2023-02-21T06:02:02;100994.19;;;2.59;100.00
25560;BME280;13450;49.374;8.584;2023-02-21T06:04:27;100995.84;;;2.60;100.00
25560;BME280;13450;49.374;8.584;2023-02-21T06:06:53;100996.72;;;2.60;100.00
25560;BME280;13450;49.374;8.584;2023-02-21T06:09:19;100995.63;;;2.63;100.00
25560;BME280;13450;49.374;8.584;2023-02-21T06:11:45;100998.75;;;2.68;100.00
25560;BME280;13450;49.374;8.584;2023-02-21T06:14:18;100996.81;;;2.70;100.00
25560;BME280;13450;49.374;8.584;2023-02-21T06:16:44;101000.41;;;2.69;100.00
25560;BME280;13450;49.374;8.584;2023-02-21T06:19:11;100994.41;;;2.67;100.00
25560;BME280;13450;49.374;8.584;2023-02-21T06:21:37;101004.88;;;2.69;100.00
25560;BME280;13450;49.374;8.584;2023-02-21T06:24:04;101006.28;;;2.73;100.00
25560;BME280;13450;49.374;8.584;2023-02-21T06:26:30;101000.91;;;2.74;100.00
25560;BME280;13450;49.374;8.584;2023-02-21T06:28:55;100998.25;;;2.74;100.00
25560;BME280;13450;49.374;8.584;2023-02-21T06:31:20;101000.19;;;2.72;100.00
25560;BME280;13450;49.374;8.584;2023-02-21T06:33:48;100997.53;;;2.72;100.00
25560;BME280;13450;49.374;8.584;2023-02-21T06:36:17;101001.16;;;2.71;100.00
25560;BME280;13450;49.374;8.584;2023-02-21T06:38:47;100995.88;;;2.71;100.00
25560;BME280;13450;49.374;8.584;2023-02-21T06:41:17;100997.53;;;2.72;100.00
25560;BME280;13450;49.374;8.584;2023-02-21T06:43:45;100996.69;;;2.72;100.00
25560;BME280;13450;49.374;8.584;2023-02-21T06:46:22;100993.81;;;2.75;100.00
25560;BME280;13450;49.374;8.584;2023-02-21T06:48:48;100998.03;;;2.78;100.00
25560;BME280;13450;49.374;8.584;2023-02-21T06:51:14;101001.13;;;2.83;100.00
25560;BME280;13450;49.374;8.584;2023-02-21T06:53:41;101001.63;;;2.88;100.00
25560;BME280;13450;49.374;8.584;2023-02-21T06:56:07;100998.75;;;2.91;100.00
25560;BME280;13450;49.374;8.584;2023-02-21T06:58:36;100995.88;;;2.94;100.00
25560;BME280;13450;49.374;8.584;2023-02-21T07:01:02;100990.06;;;3.00;100.00
25560;BME280;13450;49.374;8.584;2023-02-21T07:03:27;100984.44;;;3.05;100.00
25560;BME280;13450;49.374;8.584;2023-02-21T07:05:53;100994.50;;;3.11;100.00
25560;BME280;13450;49.374;8.584;2023-02-21T07:08:18;101002.91;;;3.17;100.00
25560;BME280;13450;49.374;8.584;2023-02-21T07:10:43;101003.28;;;3.23;100.00
25560;BME280;13450;49.374;8.584;2023-02-21T07:13:11;101001.69;;;3.32;100.00
25560;BME280;13450;49.374;8.584;2023-02-21T07:15:37;100997.69;;;3.38;100.00
25560;BME280;13450;49.374;8.584;2023-02-21T07:18:02;100997.09;;;3.46;100.00
25560;BME280;13450;49.374;8.584;2023-02-21T07:20:27;100994.91;;;3.51;100.00
25560;BME280;13450;49.374;8.584;2023-02-21T07:22:53;100999.44;;;3.60;100.00
25560;BME280;13450;49.374;8.584;2023-02-21T07:25:20;101003.13;;;3.69;100.00
25560;BME280;13450;49.374;8.584;2023-02-21T07:27:49;100990.34;;;3.74;100.00
25560;BME280;13450;49.374;8.584;2023-02-21T07:30:16;100996.84;;;3.82;100.00
25560;BME280;13450;49.374;8.584;2023-02-21T07:32:42;100998.16;;;3.87;100.00
25560;BME280;13450;49.374;8.584;2023-02-21T07:35:08;100994.84;;;3.95;100.00
25560;BME280;13450;49.374;8.584;2023-02-21T07:37:33;100997.94;;;4.00;100.00
25560;BME280;13450;49.374;8.584;2023-02-21T07:39:59;100987.81;;;4.05;100.00
25560;BME280;13450;49.374;8.584;2023-02-21T07:42:24;100990.94;;;4.11;100.00
25560;BME280;13450;49.374;8.584;2023-02-21T07:44:54;100984.38;;;4.15;100.00
25560;BME280;13450;49.374;8.584;2023-02-21T07:47:21;100986.53;;;4.21;100.00
25560;BME280;13450;49.374;8.584;2023-02-21T07:49:46;100991.31;;;4.27;100.00
25560;BME280;13450;49.374;8.584;2023-02-21T07:52:12;100990.81;;;4.34;100.00
25560;BME280;13450;49.374;8.584;2023-02-21T07:54:37;100996.13;;;4.43;100.00
25560;BME280;13450;49.374;8.584;2023-02-21T07:57:03;100997.16;;;4.52;100.00
25560;BME280;13450;49.374;8.584;2023-02-21T07:59:28;100995.66;;;4.60;100.00
25560;BME280;13450;49.374;8.584;2023-02-21T08:01:53;101001.13;;;4.68;100.00
25560;BME280;13450;49.374;8.584;2023-02-21T08:04:19;100999.66;;;4.75;100.00
25560;BME280;13450;49.374;8.584;2023-02-21T08:06:46;100998.84;;;4.84;100.00
25560;BME280;13450;49.374;8.584;2023-02-21T08:09:13;101002.50;;;4.93;100.00
25560;BME280;13450;49.374;8.584;2023-02-21T08:11:41;101001.69;;;5.03;100.00
25560;BME280;13450;49.374;8.584;2023-02-21T08:14:07;100998.38;;;5.10;100.00
25560;BME280;13450;49.374;8.584;2023-02-21T08:16:32;101000.91;;;5.22;100.00
25560;BME280;13450;49.374;8.584;2023-02-21T08:18:58;100998.41;;;5.30;100.00
25560;BME280;13450;49.374;8.584;2023-02-21T08:21:23;100994.81;;;5.41;100.00
25560;BME280;13450;49.374;8.584;2023-02-21T08:23:53;100995.94;;;5.48;100.00
25560;BME280;13450;49.374;8.584;2023-02-21T08:26:19;100992.28;;;5.59;100.00
25560;BME280;13450;49.374;8.584;2023-02-21T08:28:46;100990.63;;;5.68;100.00
25560;BME280;13450;49.374;8.584;2023-02-21T08:31:13;100996.22;;;5.75;100.00
25560;BME280;13450;49.374;8.584;2023-02-21T08:33:39;100995.66;;;5.81;100.00
25560;BME280;13450;49.374;8.584;2023-02-21T08:36:05;100994.13;;;5.88;100.00
25560;BME280;13450;49.374;8.584;2023-02-21T08:38:30;100997.91;;;5.96;100.00
25560;BME280;13450;49.374;8.584;2023-02-21T08:40:56;100996.38;;;6.03;100.00
25560;BME280;13450;49.374;8.584;2023-02-21T08:43:22;100983.91;;;6.13;100.00
25560;BME280;13450;49.374;8.584;2023-02-21T08:45:50;100992.59;;;6.25;100.00
25560;BME280;13450;49.374;8.584;2023-02-21T08:48:15;100986.56;;;6.33;100.00
25560;BME280;13450;49.374;8.584;2023-02-21T08:50:41;100981.34;;;6.41;100.00
25560;BME280;13450;49.374;8.584;2023-02-21T08:53:06;100991.41;;;6.48;100.00
25560;BME280;13450;49.374;8.584;2023-02-21T08:55:34;100981.88;;;6.55;100.00
25560;BME280;13450;49.374;8.584;2023-02-21T08:57:59;100976.81;;;6.62;100.00
25560;BME280;13450;49.374;8.584;2023-02-21T09:00:27;100984.91;;;6.70;100.00
25560;BME280;13450;49.374;8.584;2023-02-21T09:02:53;100981.50;;;6.78;100.00
25560;BME280;13450;49.374;8.584;2023-02-21T09:05:26;100989.41;;;6.88;100.00
25560;BME280;13450;49.374;8.584;2023-02-21T09:07:52;100978.75;;;6.98;100.00
25560;BME280;13450;49.374;8.584;2023-02-21T09:10:23;100973.22;;;7.09;100.00
25560;BME280;13450;49.374;8.584;2023-02-21T09:12:48;100973.72;;;7.23;100.00
25560;BME280;13450;49.374;8.584;2023-02-21T09:15:16;100974.47;;;7.33;100.00
25560;BME280;13450;49.374;8.584;2023-02-21T09:17:42;100969.09;;;7.43;100.00
25560;BME280;13450;49.374;8.584;2023-02-21T09:20:09;100973.34;;;7.54;100.00
25560;BME280;13450;49.374;8.584;2023-02-21T09:22:34;100967.94;;;7.64;100.00
25560;BME280;13450;49.374;8.584;2023-02-21T09:25:01;100973.84;;;7.76;100.00
25560;BME280;13450;49.374;8.584;2023-02-21T09:27:26;100968.44;;;7.85;100.00
25560;BME280;13450;49.374;8.584;2023-02-21T09:30:03;100962.03;;;7.96;100.00
25560;BME280;13450;49.374;8.584;2023-02-21T09:32:31;100958.28;;;8.07;100.00
25560;BME280;13450;49.374;8.584;2023-02-21T09:34:57;100959.16;;;8.16;100.00
25560;BME280;13450;49.374;8.584;2023-02-21T09:37:23;100957.25;;;8.27;100.00
25560;BME280;13450;49.374;8.584;2023-02-21T09:39:48;100957.81;;;8.38;100.00
25560;BME280;13450;49.374;8.584;2023-02-21T09:42:16;100949.88;;;8.47;100.00
25560;BME280;13450;49.374;8.584;2023-02-21T09:44:44;100950.09;;;8.54;100.00
25560;BME280;13450;49.374;8.584;2023-02-21T09:47:26;100942.66;;;8.66;100.00
25560;BME280;13450;49.374;8.584;2023-02-21T09:50:00;100947.53;;;8.79;100.00
25560;BME280;13450;49.374;8.584;2023-02-21T09:52:36;100948.59;;;8.94;100.00
25560;BME280;13450;49.374;8.584;2023-02-21T09:55:13;100938.47;;;9.06;100.00
25560;BME280;13450;49.374;8.584;2023-02-21T09:57:41;100943.31;;;9.19;100.00
25560;BME280;13450;49.374;8.584;2023-02-21T10:10:46;100940.88;;;9.84;100.00
25560;BME280;13450;49.374;8.584;2023-02-21T10:13:26;100947.88;;;9.93;100.00
25560;BME280;13450;49.374;8.584;2023-02-21T10:16:24;100944.88;;;10.05;100.00
25560;BME280;13450;49.374;8.584;2023-02-21T10:19:15;100942.34;;;10.20;100.00
25560;BME280;13450;49.374;8.584;2023-02-21T10:21:45;100945.97;;;10.36;100.00
25560;BME280;13450;49.374;8.584;2023-02-21T10:24:23;100937.63;;;10.47;100.00
25560;BME280;13450;49.374;8.584;2023-02-21T10:27:07;100936.91;;;10.62;100.00
25560;BME280;13450;49.374;8.584;2023-02-21T10:29:44;100935.16;;;10.77;100.00
25560;BME280;13450;49.374;8.584;2023-02-21T10:32:11;100937.06;;;10.92;100.00
25560;BME280;13450;49.374;8.584;2023-02-21T10:34:38;100936.06;;;11.01;100.00
25560;BME280;13450;49.374;8.584;2023-02-21T10:42:53;100930.28;;;11.98;100.00
25560;BME280;13450;49.374;8.584;2023-02-21T10:45:29;100937.75;;;12.56;100.00
25560;BME280;13450;49.374;8.584;2023-02-21T10:48:04;100918.00;;;13.81;100.00
25560;BME280;13450;49.374;8.584;2023-02-21T10:53:30;100921.13;;;19.20;65.89
25560;BME280;13450;49.374;8.584;2023-02-21T10:56:23;100921.59;;;20.72;53.94
25560;BME280;13450;49.374;8.584;2023-02-21T10:58:53;100934.81;;;21.73;48.52
25560;BME280;13450;49.374;8.584;2023-02-21T11:03:58;100916.81;;;24.53;40.52
25560;BME280;13450;49.374;8.584;2023-02-21T11:08:49;100912.91;;;24.33;38.52
25560;BME280;13450;49.374;8.584;2023-02-21T11:11:34;100909.97;;;24.50;37.36
25560;BME280;13450;49.374;8.584;2023-02-21T11:16:43;100901.31;;;27.45;33.74
25560;BME280;13450;49.374;8.584;2023-02-21T11:19:12;100900.53;;;25.31;34.39
25560;BME280;13450;49.374;8.584;2023-02-21T11:21:39;100898.06;;;27.97;33.22
25560;BME280;13450;49.374;8.584;2023-02-21T11:24:06;100882.63;;;28.26;31.17
25560;BME280;13450;49.374;8.584;2023-02-21T11:26:37;100888.59;;;29.76;32.55
25560;BME280;13450;49.374;8.584;2023-02-21T11:29:14;100882.13;;;27.99;30.40
25560;BME280;13450;49.374;8.584;2023-02-21T11:31:40;100875.06;;;28.37;30.20
25560;BME280;13450;49.374;8.584;2023-02-21T11:34:09;100876.44;;;27.66;30.26
25560;BME280;13450;49.374;8.584;2023-02-21T11:36:41;100868.88;;;28.01;34.37
25560;BME280;13450;49.374;8.584;2023-02-21T11:39:31;100862.25;;;27.24;30.02
25560;BME280;13450;49.374;8.584;2023-02-21T11:41:59;100864.31;;;28.98;30.33
25560;BME280;13450;49.374;8.584;2023-02-21T11:44:32;100863.63;;;28.24;29.01
25560;BME280;13450;49.374;8.584;2023-02-21T11:47:16;100847.50;;;29.89;28.54
25560;BME280;13450;49.374;8.584;2023-02-21T11:50:09;100844.25;;;29.73;28.29
25560;BME280;13450;49.374;8.584;2023-02-21T11:55:32;100834.25;;;28.44;27.67
25560;BME280;13450;49.374;8.584;2023-02-21T11:58:16;100831.06;;;28.56;28.04
25560;BME280;13450;49.374;8.584;2023-02-21T12:00:50;100834.59;;;30.77;26.08
25560;BME280;13450;49.374;8.584;2023-02-21T12:09:11;100818.16;;;32.17;24.38
25560;BME280;13450;49.374;8.584;2023-02-21T12:11:55;100809.28;;;30.24;25.76
25560;BME280;13450;49.374;8.584;2023-02-21T12:14:33;100801.09;;;30.33;26.75
25560;BME280;13450;49.374;8.584;2023-02-21T12:28:36;100776.31;;;31.11;24.31
25560;BME280;13450;49.374;8.584;2023-02-21T12:39:28;100759.41;;;31.12;24.18
25560;BME280;13450;49.374;8.584;2023-02-21T12:45:06;100750.78;;;31.37;23.67
25560;BME280;13450;49.374;8.584;2023-02-21T12:48:05;100741.03;;;30.76;23.93
25560;BME280;13450;49.374;8.584;2023-02-21T12:50:41;100738.28;;;32.98;22.68
25560;BME280;13450;49.374;8.584;2023-02-21T12:56:05;100734.03;;;32.44;21.69
25560;BME280;13450;49.374;8.584;2023-02-21T13:01:10;100729.84;;;32.86;21.78
25560;BME280;13450;49.374;8.584;2023-02-21T13:09:46;100717.56;;;33.44;20.36
25560;BME280;13450;49.374;8.584;2023-02-21T13:12:24;100707.97;;;32.28;20.84
25560;BME280;13450;49.374;8.584;2023-02-21T13:15:19;100717.34;;;33.58;20.70
25560;BME280;13450;49.374;8.584;2023-02-21T13:18:06;100709.91;;;32.27;21.24
25560;BME280;13450;49.374;8.584;2023-02-21T13:20:40;100711.16;;;31.59;21.55
25560;BME280;13450;49.374;8.584;2023-02-21T13:23:25;100696.19;;;31.11;21.64
25560;BME280;13450;49.374;8.584;2023-02-21T13:26:39;100697.09;;;32.88;20.62
25560;BME280;13450;49.374;8.584;2023-02-21T13:29:17;100692.09;;;32.72;21.01
25560;BME280;13450;49.374;8.584;2023-02-21T13:31:43;100686.97;;;32.44;20.49
25560;BME280;13450;49.374;8.584;2023-02-21T13:34:12;100685.50;;;32.20;21.15
25560;BME280;13450;49.374;8.584;2023-02-21T13:36:46;100685.34;;;32.91;20.10
25560;BME280;13450;49.374;8.584;2023-02-21T13:39:17;100669.78;;;36.10;19.75
25560;BME280;13450;49.374;8.584;2023-02-21T13:41:54;100676.69;;;36.61;17.37
25560;BME280;13450;49.374;8.584;2023-02-21T13:44:45;100667.38;;;35.68;17.50
25560;BME280;13450;49.374;8.584;2023-02-21T13:47:22;100663.44;;;35.69;18.35
25560;BME280;13450;49.374;8.584;2023-02-21T13:49:54;100661.56;;;37.11;18.27
25560;BME280;13450;49.374;8.584;2023-02-21T14:03:03;100636.13;;;34.12;18.98
25560;BME280;13450;49.374;8.584;2023-02-21T14:08:42;100626.31;;;34.15;18.42
25560;BME280;13450;49.374;8.584;2023-02-21T14:11:19;100628.94;;;33.05;19.41
25560;BME280;13450;49.374;8.584;2023-02-21T14:14:26;100621.97;;;32.51;19.63
25560;BME280;13450;49.374;8.584;2023-02-21T14:17:01;100620.72;;;31.33;20.35
25560;BME280;13450;49.374;8.584;2023-02-21T14:22:09;100616.19;;;31.55;20.64
25560;BME280;13450;49.374;8.584;2023-02-21T14:24:43;100616.03;;;29.47;22.41
25560;BME280;13450;49.374;8.584;2023-02-21T14:29:41;100610.84;;;29.31;23.65
25560;BME280;13450;49.374;8.584;2023-02-21T14:37:25;100604.84;;;25.31;26.63
25560;BME280;13450;49.374;8.584;2023-02-21T14:54:32;100582.03;;;22.15;30.29
25560;BME280;13450;49.374;8.584;2023-02-21T15:10:18;100572.28;;;22.57;32.72
25560;BME280;13450;49.374;8.584;2023-02-21T15:12:48;100576.13;;;22.62;30.47
25560;BME280;13450;49.374;8.584;2023-02-21T15:15:22;100569.78;;;23.04;29.44
25560;BME280;13450;49.374;8.584;2023-02-21T15:23:32;100552.81;;;25.31;26.01
25560;BME280;13450;49.374;8.584;2023-02-21T15:26:01;100548.72;;;24.47;27.20
25560;BME280;13450;49.374;8.584;2023-02-21T15:28:34;100545.22;;;24.31;27.57
25560;BME280;13450;49.374;8.584;2023-02-21T15:31:07;100546.22;;;23.41;28.29
25560;BME280;13450;49.374;8.584;2023-02-21T15:33:34;100553.97;;;24.22;28.25
25560;BME280;13450;49.374;8.584;2023-02-21T15:36:04;100548.50;;;24.22;27.29
25560;BME280;13450;49.374;8.584;2023-02-21T15:38:34;100552.53;;;23.73;28.20
25560;BME280;13450;49.374;8.584;2023-02-21T15:41:08;100534.78;;;24.48;27.68
25560;BME280;13450;49.374;8.584;2023-02-21T15:43:41;100541.06;;;24.59;27.10
25560;BME280;13450;49.374;8.584;2023-02-21T15:46:15;100541.00;;;22.70;29.31
25560;BME280;13450;49.374;8.584;2023-02-21T15:48:43;100539.31;;;22.59;29.55
25560;BME280;13450;49.374;8.584;2023-02-21T15:51:09;100532.81;;;21.94;29.79
25560;BME280;13450;49.374;8.584;2023-02-21T15:53:35;100528.91;;;21.30;31.05
25560;BME280;13450;49.374;8.584;2023-02-21T15:56:22;100529.94;;;20.22;33.32
25560;BME280;13450;49.374;8.584;2023-02-21T15:59:27;100527.81;;;19.32;34.83
25560;BME280;13450;49.374;8.584;2023-02-21T16:04:36;100519.56;;;18.26;36.32